sensor_id;sensor_type;location;lat;lon;timestamp;P1;durP1;ratioP1;P2;durP2;ratioP2
16689;SDS011;8458;52.220;9.884;2022-08-23T00:00:39;2.07;;;1.10;;
16689;SDS011;8458;52.220;9.884;2022-08-23T00:03:06;1.73;;;1.00;;
16689;SDS011;8458;52.220;9.884;2022-08-23T00:05:33;2.27;;;1.30;;
16689;SDS011;8458;52.220;9.884;2022-08-23T00:08:01;1.60;;;1.10;;
16689;SDS011;8458;52.220;9.884;2022-08-23T00:10:28;1.77;;;1.30;;
16689;SDS011;8458;52.220;9.884;2022-08-23T00:12:54;1.20;;;1.10;;
16689;SDS011;8458;52.220;9.884;2022-08-23T00:15:21;1.53;;;1.20;;
16689;SDS011;8458;52.220;9.884;2022-08-23T00:17:48;2.33;;;1.10;;
16689;SDS011;8458;52.220;9.884;2022-08-23T00:20:16;2.17;;;1.20;;
16689;SDS011;8458;52.220;9.884;2022-08-23T00:22:45;2.47;;;1.30;;
16689;SDS011;8458;52.220;9.884;2022-08-23T00:25:13;2.70;;;1.20;;
16689;SDS011;8458;52.220;9.884;2022-08-23T00:27:40;1.57;;;1.03;;
16689;SDS011;8458;52.220;9.884;2022-08-23T00:30:07;2.40;;;1.43;;
16689;SDS011;8458;52.220;9.884;2022-08-23T00:32:38;1.80;;;1.20;;
16689;SDS011;8458;52.220;9.884;2022-08-23T00:35:05;2.37;;;1.20;;
16689;SDS011;8458;52.220;9.884;2022-08-23T00:37:33;1.67;;;1.20;;
16689;SDS011;8458;52.220;9.884;2022-08-23T00:40:02;2.43;;;1.20;;
16689;SDS011;8458;52.220;9.884;2022-08-23T00:42:33;2.53;;;1.30;;
16689;SDS011;8458;52.220;9.884;2022-08-23T00:45:23;3.00;;;1.23;;
16689;SDS011;8458;52.220;9.884;2022-08-23T00:48:10;1.60;;;1.10;;
16689;SDS011;8458;52.220;9.884;2022-08-23T00:50:39;1.40;;;1.30;;
16689;SDS011;8458;52.220;9.884;2022-08-23T00:53:11;1.77;;;1.27;;
16689;SDS011;8458;52.220;9.884;2022-08-23T00:55:43;2.07;;;1.13;;
16689;SDS011;8458;52.220;9.884;2022-08-23T00:58:13;1.43;;;1.20;;
16689;SDS011;8458;52.220;9.884;2022-08-23T01:00:43;1.20;;;1.10;;
16689;SDS011;8458;52.220;9.884;2022-08-23T01:03:10;1.63;;;1.30;;
16689;SDS011;8458;52.220;9.884;2022-08-23T01:05:41;2.30;;;1.20;;
16689;SDS011;8458;52.220;9.884;2022-08-23T01:08:24;2.00;;;1.07;;
16689;SDS011;8458;52.220;9.884;2022-08-23T01:10:53;2.60;;;1.20;;
16689;SDS011;8458;52.220;9.884;2022-08-23T01:13:25;1.30;;;1.20;;
16689;SDS011;8458;52.220;9.884;2022-08-23T01:15:58;1.20;;;1.07;;
16689;SDS011;8458;52.220;9.884;2022-08-23T01:18:30;1.20;;;1.10;;
16689;SDS011;8458;52.220;9.884;2022-08-23T01:20:59;2.60;;;1.50;;
16689;SDS011;8458;52.220;9.884;2022-08-23T01:23:34;1.63;;;1.30;;
16689;SDS011;8458;52.220;9.884;2022-08-23T01:26:06;1.30;;;1.20;;
16689;SDS011;8458;52.220;9.884;2022-08-23T01:28:33;1.47;;;1.27;;
16689;SDS011;8458;52.220;9.884;2022-08-23T01:31:00;2.93;;;1.50;;
16689;SDS011;8458;52.220;9.884;2022-08-23T01:33:28;2.30;;;1.57;;
16689;SDS011;8458;52.220;9.884;2022-08-23T01:35:56;2.43;;;1.50;;
16689;SDS011;8458;52.220;9.884;2022-08-23T01:38:24;1.67;;;1.37;;
16689;SDS011;8458;52.220;9.884;2022-08-23T01:40:52;2.93;;;1.40;;
16689;SDS011;8458;52.220;9.884;2022-08-23T01:43:19;1.70;;;1.40;;
16689;SDS011;8458;52.220;9.884;2022-08-23T01:45:47;2.13;;;1.53;;
16689;SDS011;8458;52.220;9.884;2022-08-23T01:48:15;2.00;;;1.50;;
16689;SDS011;8458;52.220;9.884;2022-08-23T01:50:43;2.47;;;1.60;;
16689;SDS011;8458;52.220;9.884;2022-08-23T01:53:10;2.10;;;1.60;;
16689;SDS011;8458;52.220;9.884;2022-08-23T01:55:37;1.50;;;1.40;;
16689;SDS011;8458;52.220;9.884;2022-08-23T01:58:07;1.83;;;1.40;;
16689;SDS011;8458;52.220;9.884;2022-08-23T02:00:36;2.10;;;1.60;;
16689;SDS011;8458;52.220;9.884;2022-08-23T02:03:04;1.40;;;1.30;;
16689;SDS011;8458;52.220;9.884;2022-08-23T02:05:32;2.10;;;1.53;;
16689;SDS011;8458;52.220;9.884;2022-08-23T02:07:59;2.20;;;1.30;;
16689;SDS011;8458;52.220;9.884;2022-08-23T02:10:46;2.50;;;1.50;;
16689;SDS011;8458;52.220;9.884;2022-08-23T02:13:14;2.03;;;1.23;;
16689;SDS011;8458;52.220;9.884;2022-08-23T02:15:41;4.00;;;1.60;;
16689;SDS011;8458;52.220;9.884;2022-08-23T02:18:08;1.50;;;1.27;;
16689;SDS011;8458;52.220;9.884;2022-08-23T02:20:35;2.10;;;1.37;;
16689;SDS011;8458;52.220;9.884;2022-08-23T02:23:01;2.13;;;1.57;;
16689;SDS011;8458;52.220;9.884;2022-08-23T02:25:31;1.70;;;1.50;;
16689;SDS011;8458;52.220;9.884;2022-08-23T02:27:57;1.60;;;1.40;;
16689;SDS011;8458;52.220;9.884;2022-08-23T02:30:25;2.17;;;1.70;;
16689;SDS011;8458;52.220;9.884;2022-08-23T02:32:51;2.30;;;1.50;;
16689;SDS011;8458;52.220;9.884;2022-08-23T02:35:18;2.07;;;1.37;;
16689;SDS011;8458;52.220;9.884;2022-08-23T02:37:45;2.33;;;1.70;;
16689;SDS011;8458;52.220;9.884;2022-08-23T02:40:11;1.40;;;1.20;;
16689;SDS011;8458;52.220;9.884;2022-08-23T02:42:38;1.80;;;1.20;;
16689;SDS011;8458;52.220;9.884;2022-08-23T02:45:05;2.87;;;1.57;;
16689;SDS011;8458;52.220;9.884;2022-08-23T02:47:34;2.67;;;1.30;;
16689;SDS011;8458;52.220;9.884;2022-08-23T02:50:01;3.17;;;1.30;;
16689;SDS011;8458;52.220;9.884;2022-08-23T02:52:29;1.70;;;1.30;;
16689;SDS011;8458;52.220;9.884;2022-08-23T02:54:55;1.57;;;1.30;;
16689;SDS011;8458;52.220;9.884;2022-08-23T02:57:22;1.50;;;1.23;;
16689;SDS011;8458;52.220;9.884;2022-08-23T02:59:48;3.17;;;1.60;;
16689;SDS011;8458;52.220;9.884;2022-08-23T03:02:16;2.10;;;1.20;;
16689;SDS011;8458;52.220;9.884;2022-08-23T03:04:44;2.40;;;1.57;;
16689;SDS011;8458;52.220;9.884;2022-08-23T03:07:10;2.50;;;1.33;;
16689;SDS011;8458;52.220;9.884;2022-08-23T03:09:37;2.37;;;1.20;;
16689;SDS011;8458;52.220;9.884;2022-08-23T03:12:04;2.60;;;1.80;;
16689;SDS011;8458;52.220;9.884;2022-08-23T03:14:30;2.07;;;1.50;;
16689;SDS011;8458;52.220;9.884;2022-08-23T03:16:57;2.70;;;1.40;;
16689;SDS011;8458;52.220;9.884;2022-08-23T03:19:23;1.80;;;1.70;;
16689;SDS011;8458;52.220;9.884;2022-08-23T03:21:52;2.60;;;1.60;;
16689;SDS011;8458;52.220;9.884;2022-08-23T03:24:18;2.30;;;1.57;;
16689;SDS011;8458;52.220;9.884;2022-08-23T03:26:45;2.20;;;1.33;;
16689;SDS011;8458;52.220;9.884;2022-08-23T03:29:11;3.77;;;1.60;;
16689;SDS011;8458;52.220;9.884;2022-08-23T03:31:38;2.43;;;1.60;;
16689;SDS011;8458;52.220;9.884;2022-08-23T03:34:05;2.23;;;1.40;;
16689;SDS011;8458;52.220;9.884;2022-08-23T03:36:32;1.57;;;1.47;;
16689;SDS011;8458;52.220;9.884;2022-08-23T03:39:00;1.73;;;1.63;;
16689;SDS011;8458;52.220;9.884;2022-08-23T03:41:27;1.80;;;1.50;;
16689;SDS011;8458;52.220;9.884;2022-08-23T03:43:54;1.53;;;1.43;;
16689;SDS011;8458;52.220;9.884;2022-08-23T03:46:20;2.10;;;1.40;;
16689;SDS011;8458;52.220;9.884;2022-08-23T03:48:50;1.50;;;1.23;;
16689;SDS011;8458;52.220;9.884;2022-08-23T03:51:18;1.90;;;1.50;;
16689;SDS011;8458;52.220;9.884;2022-08-23T03:53:45;2.70;;;1.30;;
16689;SDS011;8458;52.220;9.884;2022-08-23T03:56:21;1.50;;;1.40;;
16689;SDS011;8458;52.220;9.884;2022-08-23T03:58:48;2.93;;;1.63;;
16689;SDS011;8458;52.220;9.884;2022-08-23T04:01:15;2.30;;;1.50;;
16689;SDS011;8458;52.220;9.884;2022-08-23T04:03:41;2.90;;;1.70;;
16689;SDS011;8458;52.220;9.884;2022-08-23T04:06:08;2.83;;;1.70;;
16689;SDS011;8458;52.220;9.884;2022-08-23T04:08:35;4.53;;;1.77;;
16689;SDS011;8458;52.220;9.884;2022-08-23T04:11:02;5.20;;;2.13;;
16689;SDS011;8458;52.220;9.884;2022-08-23T04:13:30;5.07;;;1.87;;
16689;SDS011;8458;52.220;9.884;2022-08-23T04:15:57;3.20;;;2.03;;
16689;SDS011;8458;52.220;9.884;2022-08-23T04:18:26;3.53;;;2.03;;
16689;SDS011;8458;52.220;9.884;2022-08-23T04:20:54;2.97;;;1.90;;
16689;SDS011;8458;52.220;9.884;2022-08-23T04:23:22;5.00;;;2.30;;
16689;SDS011;8458;52.220;9.884;2022-08-23T04:25:49;5.47;;;1.93;;
16689;SDS011;8458;52.220;9.884;2022-08-23T04:28:17;5.37;;;1.70;;
16689;SDS011;8458;52.220;9.884;2022-08-23T04:30:45;6.57;;;2.37;;
16689;SDS011;8458;52.220;9.884;2022-08-23T04:33:12;3.20;;;2.00;;
16689;SDS011;8458;52.220;9.884;2022-08-23T04:35:39;3.67;;;2.10;;
16689;SDS011;8458;52.220;9.884;2022-08-23T04:38:06;2.50;;;1.70;;
16689;SDS011;8458;52.220;9.884;2022-08-23T04:40:32;2.50;;;2.00;;
16689;SDS011;8458;52.220;9.884;2022-08-23T04:43:16;2.10;;;1.90;;
16689;SDS011;8458;52.220;9.884;2022-08-23T04:45:43;3.27;;;2.07;;
16689;SDS011;8458;52.220;9.884;2022-08-23T04:48:12;2.53;;;1.80;;
16689;SDS011;8458;52.220;9.884;2022-08-23T04:50:39;2.07;;;1.80;;
16689;SDS011;8458;52.220;9.884;2022-08-23T04:53:06;2.37;;;1.90;;
16689;SDS011;8458;52.220;9.884;2022-08-23T04:55:33;3.37;;;1.93;;
16689;SDS011;8458;52.220;9.884;2022-08-23T04:58:00;3.60;;;1.80;;
16689;SDS011;8458;52.220;9.884;2022-08-23T05:00:27;2.07;;;1.70;;
16689;SDS011;8458;52.220;9.884;2022-08-23T05:02:53;2.77;;;1.70;;
16689;SDS011;8458;52.220;9.884;2022-08-23T05:05:21;2.13;;;1.80;;
16689;SDS011;8458;52.220;9.884;2022-08-23T05:07:48;1.70;;;1.60;;
16689;SDS011;8458;52.220;9.884;2022-08-23T05:10:15;3.63;;;1.80;;
16689;SDS011;8458;52.220;9.884;2022-08-23T05:12:42;2.77;;;1.67;;
16689;SDS011;8458;52.220;9.884;2022-08-23T05:15:09;2.03;;;1.60;;
16689;SDS011;8458;52.220;9.884;2022-08-23T05:17:37;2.87;;;1.60;;
16689;SDS011;8458;52.220;9.884;2022-08-23T05:20:04;2.37;;;1.40;;
16689;SDS011;8458;52.220;9.884;2022-08-23T05:22:34;2.10;;;1.60;;
16689;SDS011;8458;52.220;9.884;2022-08-23T05:25:02;2.20;;;1.80;;
16689;SDS011;8458;52.220;9.884;2022-08-23T05:27:29;2.00;;;1.90;;
16689;SDS011;8458;52.220;9.884;2022-08-23T05:29:56;1.53;;;1.43;;
16689;SDS011;8458;52.220;9.884;2022-08-23T05:32:23;2.23;;;1.67;;
16689;SDS011;8458;52.220;9.884;2022-08-23T05:34:50;3.10;;;1.80;;
16689;SDS011;8458;52.220;9.884;2022-08-23T05:37:16;1.83;;;1.50;;
16689;SDS011;8458;52.220;9.884;2022-08-23T05:39:44;3.27;;;1.40;;
16689;SDS011;8458;52.220;9.884;2022-08-23T05:42:11;2.70;;;1.60;;
16689;SDS011;8458;52.220;9.884;2022-08-23T05:44:40;1.87;;;1.60;;
16689;SDS011;8458;52.220;9.884;2022-08-23T05:47:07;2.33;;;1.77;;
16689;SDS011;8458;52.220;9.884;2022-08-23T05:49:35;3.63;;;1.83;;
16689;SDS011;8458;52.220;9.884;2022-08-23T05:52:03;1.93;;;1.60;;
16689;SDS011;8458;52.220;9.884;2022-08-23T05:54:30;2.60;;;1.97;;
16689;SDS011;8458;52.220;9.884;2022-08-23T05:56:58;1.87;;;1.60;;
16689;SDS011;8458;52.220;9.884;2022-08-23T05:59:25;2.10;;;1.90;;
16689;SDS011;8458;52.220;9.884;2022-08-23T06:01:51;2.00;;;1.70;;
16689;SDS011;8458;52.220;9.884;2022-08-23T06:04:18;2.07;;;1.80;;
16689;SDS011;8458;52.220;9.884;2022-08-23T06:06:45;4.10;;;1.50;;
16689;SDS011;8458;52.220;9.884;2022-08-23T06:09:13;2.30;;;1.50;;
16689;SDS011;8458;52.220;9.884;2022-08-23T06:11:42;2.40;;;1.40;;
16689;SDS011;8458;52.220;9.884;2022-08-23T06:14:11;1.60;;;1.47;;
16689;SDS011;8458;52.220;9.884;2022-08-23T06:16:39;1.77;;;1.30;;
16689;SDS011;8458;52.220;9.884;2022-08-23T06:19:08;1.90;;;1.50;;
16689;SDS011;8458;52.220;9.884;2022-08-23T06:21:37;1.83;;;1.30;;
16689;SDS011;8458;52.220;9.884;2022-08-23T06:24:04;1.80;;;1.30;;
16689;SDS011;8458;52.220;9.884;2022-08-23T06:26:32;1.23;;;1.13;;
16689;SDS011;8458;52.220;9.884;2022-08-23T06:29:03;1.23;;;1.10;;
16689;SDS011;8458;52.220;9.884;2022-08-23T06:31:32;2.23;;;1.23;;
16689;SDS011;8458;52.220;9.884;2022-08-23T06:34:13;2.20;;;1.33;;
16689;SDS011;8458;52.220;9.884;2022-08-23T06:36:43;3.67;;;1.40;;
16689;SDS011;8458;52.220;9.884;2022-08-23T06:39:10;1.87;;;1.00;;
16689;SDS011;8458;52.220;9.884;2022-08-23T06:41:37;1.50;;;1.10;;
16689;SDS011;8458;52.220;9.884;2022-08-23T06:44:04;1.30;;;1.20;;
16689;SDS011;8458;52.220;9.884;2022-08-23T06:46:33;1.87;;;1.40;;
16689;SDS011;8458;52.220;9.884;2022-08-23T06:49:02;1.47;;;1.00;;
16689;SDS011;8458;52.220;9.884;2022-08-23T06:51:31;1.87;;;1.00;;
16689;SDS011;8458;52.220;9.884;2022-08-23T06:54:02;2.03;;;1.30;;
16689;SDS011;8458;52.220;9.884;2022-08-23T06:56:31;1.63;;;1.13;;
16689;SDS011;8458;52.220;9.884;2022-08-23T06:58:59;1.73;;;1.10;;
16689;SDS011;8458;52.220;9.884;2022-08-23T07:01:29;1.73;;;1.33;;
16689;SDS011;8458;52.220;9.884;2022-08-23T07:04:00;1.47;;;1.07;;
16689;SDS011;8458;52.220;9.884;2022-08-23T07:06:28;1.33;;;1.10;;
16689;SDS011;8458;52.220;9.884;2022-08-23T07:08:55;1.53;;;1.13;;
16689;SDS011;8458;52.220;9.884;2022-08-23T07:11:22;2.40;;;1.30;;
16689;SDS011;8458;52.220;9.884;2022-08-23T07:13:50;1.97;;;1.50;;
16689;SDS011;8458;52.220;9.884;2022-08-23T07:16:18;2.27;;;1.20;;
16689;SDS011;8458;52.220;9.884;2022-08-23T07:18:45;1.43;;;1.10;;
16689;SDS011;8458;52.220;9.884;2022-08-23T07:21:15;1.83;;;1.20;;
16689;SDS011;8458;52.220;9.884;2022-08-23T07:23:43;2.03;;;1.60;;
16689;SDS011;8458;52.220;9.884;2022-08-23T07:26:11;2.10;;;1.30;;
16689;SDS011;8458;52.220;9.884;2022-08-23T07:28:40;1.70;;;1.10;;
16689;SDS011;8458;52.220;9.884;2022-08-23T07:31:08;1.87;;;1.10;;
16689;SDS011;8458;52.220;9.884;2022-08-23T07:33:35;2.05;;;1.20;;
16689;SDS011;8458;52.220;9.884;2022-08-23T07:36:02;1.43;;;1.10;;
16689;SDS011;8458;52.220;9.884;2022-08-23T07:38:31;2.07;;;1.03;;
16689;SDS011;8458;52.220;9.884;2022-08-23T07:40:59;1.23;;;1.10;;
16689;SDS011;8458;52.220;9.884;2022-08-23T07:43:27;2.53;;;1.10;;
16689;SDS011;8458;52.220;9.884;2022-08-23T07:45:54;1.90;;;1.10;;
16689;SDS011;8458;52.220;9.884;2022-08-23T07:48:21;2.80;;;1.10;;
16689;SDS011;8458;52.220;9.884;2022-08-23T07:50:51;1.33;;;1.10;;
16689;SDS011;8458;52.220;9.884;2022-08-23T07:53:18;1.15;;;1.05;;
16689;SDS011;8458;52.220;9.884;2022-08-23T07:55:47;1.77;;;1.20;;
16689;SDS011;8458;52.220;9.884;2022-08-23T07:58:13;1.67;;;1.00;;
16689;SDS011;8458;52.220;9.884;2022-08-23T08:00:40;1.52;;;1.13;;
16689;SDS011;8458;52.220;9.884;2022-08-23T08:03:06;1.83;;;1.10;;
16689;SDS011;8458;52.220;9.884;2022-08-23T08:05:34;1.73;;;1.10;;
16689;SDS011;8458;52.220;9.884;2022-08-23T08:08:01;1.98;;;1.00;;
16689;SDS011;8458;52.220;9.884;2022-08-23T08:10:29;1.70;;;1.00;;
16689;SDS011;8458;52.220;9.884;2022-08-23T08:12:57;1.67;;;1.17;;
16689;SDS011;8458;52.220;9.884;2022-08-23T08:15:23;2.10;;;1.08;;
16689;SDS011;8458;52.220;9.884;2022-08-23T08:17:50;1.00;;;0.90;;
16689;SDS011;8458;52.220;9.884;2022-08-23T08:20:18;1.65;;;0.90;;
16689;SDS011;8458;52.220;9.884;2022-08-23T08:22:45;0.88;;;0.80;;
16689;SDS011;8458;52.220;9.884;2022-08-23T08:25:12;1.35;;;1.00;;
16689;SDS011;8458;52.220;9.884;2022-08-23T08:27:39;1.65;;;1.02;;
16689;SDS011;8458;52.220;9.884;2022-08-23T08:30:08;1.60;;;1.00;;
16689;SDS011;8458;52.220;9.884;2022-08-23T08:32:36;1.38;;;1.00;;
16689;SDS011;8458;52.220;9.884;2022-08-23T08:35:03;0.90;;;0.90;;
16689;SDS011;8458;52.220;9.884;2022-08-23T08:37:31;1.00;;;0.90;;
16689;SDS011;8458;52.220;9.884;2022-08-23T08:40:00;1.77;;;1.00;;
16689;SDS011;8458;52.220;9.884;2022-08-23T08:42:41;1.02;;;0.93;;
16689;SDS011;8458;52.220;9.884;2022-08-23T08:45:21;1.88;;;0.93;;
16689;SDS011;8458;52.220;9.884;2022-08-23T08:47:51;1.15;;;0.90;;
16689;SDS011;8458;52.220;9.884;2022-08-23T08:50:23;1.85;;;0.90;;
16689;SDS011;8458;52.220;9.884;2022-08-23T08:52:53;1.00;;;0.82;;
16689;SDS011;8458;52.220;9.884;2022-08-23T08:55:26;1.45;;;0.80;;
16689;SDS011;8458;52.220;9.884;2022-08-23T08:57:55;0.80;;;0.80;;
16689;SDS011;8458;52.220;9.884;2022-08-23T09:00:26;0.70;;;0.70;;
16689;SDS011;8458;52.220;9.884;2022-08-23T09:02:56;0.90;;;0.70;;
16689;SDS011;8458;52.220;9.884;2022-08-23T09:05:25;1.25;;;0.70;;
16689;SDS011;8458;52.220;9.884;2022-08-23T09:07:58;1.15;;;0.90;;
16689;SDS011;8458;52.220;9.884;2022-08-23T09:10:46;1.15;;;0.80;;
16689;SDS011;8458;52.220;9.884;2022-08-23T09:13:21;1.50;;;0.88;;
16689;SDS011;8458;52.220;9.884;2022-08-23T09:16:05;1.58;;;0.85;;
16689;SDS011;8458;52.220;9.884;2022-08-23T09:18:41;1.30;;;0.98;;
16689;SDS011;8458;52.220;9.884;2022-08-23T09:21:07;1.23;;;1.05;;
16689;SDS011;8458;52.220;9.884;2022-08-23T09:23:35;1.58;;;0.90;;
16689;SDS011;8458;52.220;9.884;2022-08-23T09:26:14;2.50;;;0.85;;
16689;SDS011;8458;52.220;9.884;2022-08-23T09:28:43;0.80;;;0.77;;
16689;SDS011;8458;52.220;9.884;2022-08-23T09:31:12;1.25;;;0.80;;
16689;SDS011;8458;52.220;9.884;2022-08-23T09:34:05;1.15;;;0.88;;
16689;SDS011;8458;52.220;9.884;2022-08-23T09:36:33;1.98;;;1.02;;
16689;SDS011;8458;52.220;9.884;2022-08-23T09:39:02;1.52;;;0.85;;
16689;SDS011;8458;52.220;9.884;2022-08-23T09:41:33;0.98;;;0.90;;
16689;SDS011;8458;52.220;9.884;2022-08-23T09:44:02;0.80;;;0.80;;
16689;SDS011;8458;52.220;9.884;2022-08-23T09:46:31;1.48;;;1.00;;
16689;SDS011;8458;52.220;9.884;2022-08-23T09:49:21;1.58;;;1.00;;
16689;SDS011;8458;52.220;9.884;2022-08-23T09:51:49;1.90;;;0.90;;
16689;SDS011;8458;52.220;9.884;2022-08-23T09:54:20;1.30;;;0.90;;
16689;SDS011;8458;52.220;9.884;2022-08-23T09:56:51;0.88;;;0.70;;
16689;SDS011;8458;52.220;9.884;2022-08-23T09:59:24;0.93;;;0.60;;
16689;SDS011;8458;52.220;9.884;2022-08-23T10:01:59;1.77;;;0.57;;
16689;SDS011;8458;52.220;9.884;2022-08-23T10:04:37;1.48;;;0.68;;
16689;SDS011;8458;52.220;9.884;2022-08-23T10:07:19;0.98;;;0.60;;
16689;SDS011;8458;52.220;9.884;2022-08-23T10:09:51;1.08;;;0.70;;
16689;SDS011;8458;52.220;9.884;2022-08-23T10:12:18;0.60;;;0.50;;
16689;SDS011;8458;52.220;9.884;2022-08-23T10:14:44;0.52;;;0.50;;
16689;SDS011;8458;52.220;9.884;2022-08-23T10:17:13;0.60;;;0.50;;
16689;SDS011;8458;52.220;9.884;2022-08-23T10:19:56;0.45;;;0.43;;
16689;SDS011;8458;52.220;9.884;2022-08-23T10:22:32;0.60;;;0.43;;
16689;SDS011;8458;52.220;9.884;2022-08-23T10:25:09;0.95;;;0.40;;
16689;SDS011;8458;52.220;9.884;2022-08-23T10:27:47;0.28;;;0.28;;
16689;SDS011;8458;52.220;9.884;2022-08-23T10:30:39;0.40;;;0.30;;
16689;SDS011;8458;52.220;9.884;2022-08-23T10:33:14;0.45;;;0.40;;
16689;SDS011;8458;52.220;9.884;2022-08-23T10:35:48;1.25;;;0.40;;
16689;SDS011;8458;52.220;9.884;2022-08-23T10:38:27;0.52;;;0.40;;
16689;SDS011;8458;52.220;9.884;2022-08-23T10:41:02;0.40;;;0.40;;
16689;SDS011;8458;52.220;9.884;2022-08-23T10:43:41;1.30;;;0.47;;
16689;SDS011;8458;52.220;9.884;2022-08-23T10:46:16;0.40;;;0.40;;
16689;SDS011;8458;52.220;9.884;2022-08-23T10:48:48;0.30;;;0.30;;
16689;SDS011;8458;52.220;9.884;2022-08-23T10:51:21;0.68;;;0.40;;
16689;SDS011;8458;52.220;9.884;2022-08-23T10:53:52;0.85;;;0.50;;
16689;SDS011;8458;52.220;9.884;2022-08-23T10:56:24;1.00;;;0.45;;
16689;SDS011;8458;52.220;9.884;2022-08-23T10:58:53;0.32;;;0.30;;
16689;SDS011;8458;52.220;9.884;2022-08-23T11:01:22;0.52;;;0.40;;
16689;SDS011;8458;52.220;9.884;2022-08-23T11:03:58;0.52;;;0.50;;
16689;SDS011;8458;52.220;9.884;2022-08-23T11:06:41;0.25;;;0.20;;
16689;SDS011;8458;52.220;9.884;2022-08-23T11:12:23;0.47;;;0.40;;
16689;SDS011;8458;52.220;9.884;2022-08-23T11:15:04;1.70;;;0.57;;
16689;SDS011;8458;52.220;9.884;2022-08-23T11:17:40;0.60;;;0.40;;
16689;SDS011;8458;52.220;9.884;2022-08-23T11:26:05;0.65;;;0.43;;
16689;SDS011;8458;52.220;9.884;2022-08-23T11:28:37;0.82;;;0.40;;
16689;SDS011;8458;52.220;9.884;2022-08-23T11:31:19;0.70;;;0.30;;
16689;SDS011;8458;52.220;9.884;2022-08-23T11:33:51;0.40;;;0.40;;
16689;SDS011;8458;52.220;9.884;2022-08-23T11:36:26;0.55;;;0.50;;
16689;SDS011;8458;52.220;9.884;2022-08-23T11:39:10;0.40;;;0.40;;
16689;SDS011;8458;52.220;9.884;2022-08-23T11:44:32;0.50;;;0.38;;
16689;SDS011;8458;52.220;9.884;2022-08-23T11:47:02;0.75;;;0.50;;
16689;SDS011;8458;52.220;9.884;2022-08-23T11:49:51;0.40;;;0.35;;
16689;SDS011;8458;52.220;9.884;2022-08-23T11:52:34;0.68;;;0.50;;
16689;SDS011;8458;52.220;9.884;2022-08-23T11:55:29;0.50;;;0.50;;
16689;SDS011;8458;52.220;9.884;2022-08-23T11:58:17;0.70;;;0.40;;
16689;SDS011;8458;52.220;9.884;2022-08-23T12:00:55;0.82;;;0.40;;
16689;SDS011;8458;52.220;9.884;2022-08-23T12:03:31;1.55;;;0.40;;
16689;SDS011;8458;52.220;9.884;2022-08-23T12:09:03;0.50;;;0.40;;
16689;SDS011;8458;52.220;9.884;2022-08-23T12:14:37;0.73;;;0.50;;
16689;SDS011;8458;52.220;9.884;2022-08-23T12:20:20;0.90;;;0.52;;
16689;SDS011;8458;52.220;9.884;2022-08-23T12:22:54;0.70;;;0.45;;
16689;SDS011;8458;52.220;9.884;2022-08-23T12:25:32;1.10;;;0.43;;
16689;SDS011;8458;52.220;9.884;2022-08-23T12:31:03;2.25;;;0.55;;
16689;SDS011;8458;52.220;9.884;2022-08-23T12:33:40;0.80;;;0.45;;
16689;SDS011;8458;52.220;9.884;2022-08-23T12:36:14;0.55;;;0.50;;
16689;SDS011;8458;52.220;9.884;2022-08-23T12:38:51;2.03;;;0.60;;
16689;SDS011;8458;52.220;9.884;2022-08-23T12:41:24;1.63;;;0.50;;
16689;SDS011;8458;52.220;9.884;2022-08-23T12:43:55;1.58;;;0.70;;
16689;SDS011;8458;52.220;9.884;2022-08-23T12:46:32;1.00;;;0.55;;
16689;SDS011;8458;52.220;9.884;2022-08-23T12:49:01;0.77;;;0.50;;
16689;SDS011;8458;52.220;9.884;2022-08-23T12:51:28;1.27;;;0.50;;
16689;SDS011;8458;52.220;9.884;2022-08-23T12:53:55;0.65;;;0.60;;
16689;SDS011;8458;52.220;9.884;2022-08-23T12:56:25;0.70;;;0.50;;
16689;SDS011;8458;52.220;9.884;2022-08-23T12:58:55;0.50;;;0.50;;
16689;SDS011;8458;52.220;9.884;2022-08-23T13:01:29;0.50;;;0.50;;
16689;SDS011;8458;52.220;9.884;2022-08-23T13:03:59;0.65;;;0.47;;
16689;SDS011;8458;52.220;9.884;2022-08-23T13:06:30;0.50;;;0.50;;
16689;SDS011;8458;52.220;9.884;2022-08-23T13:09:02;1.10;;;0.60;;
16689;SDS011;8458;52.220;9.884;2022-08-23T13:11:31;0.65;;;0.50;;
16689;SDS011;8458;52.220;9.884;2022-08-23T13:17:11;1.45;;;0.60;;
16689;SDS011;8458;52.220;9.884;2022-08-23T13:20:09;1.00;;;0.47;;
16689;SDS011;8458;52.220;9.884;2022-08-23T13:22:54;0.50;;;0.50;;
16689;SDS011;8458;52.220;9.884;2022-08-23T13:25:23;0.50;;;0.50;;
16689;SDS011;8458;52.220;9.884;2022-08-23T13:27:52;1.35;;;0.60;;
16689;SDS011;8458;52.220;9.884;2022-08-23T13:30:23;1.00;;;0.63;;
16689;SDS011;8458;52.220;9.884;2022-08-23T13:33:17;1.42;;;0.57;;
16689;SDS011;8458;52.220;9.884;2022-08-23T13:35:49;0.63;;;0.50;;
16689;SDS011;8458;52.220;9.884;2022-08-23T13:38:21;1.45;;;0.70;;
16689;SDS011;8458;52.220;9.884;2022-08-23T13:40:55;1.05;;;0.63;;
16689;SDS011;8458;52.220;9.884;2022-08-23T13:43:29;0.93;;;0.60;;
16689;SDS011;8458;52.220;9.884;2022-08-23T13:46:00;0.68;;;0.50;;
16689;SDS011;8458;52.220;9.884;2022-08-23T13:48:39;1.40;;;0.60;;
16689;SDS011;8458;52.220;9.884;2022-08-23T13:54:01;1.20;;;0.60;;
16689;SDS011;8458;52.220;9.884;2022-08-23T13:56:32;1.00;;;0.60;;
16689;SDS011;8458;52.220;9.884;2022-08-23T13:59:04;1.05;;;0.50;;
16689;SDS011;8458;52.220;9.884;2022-08-23T14:01:42;2.55;;;0.90;;
16689;SDS011;8458;52.220;9.884;2022-08-23T14:04:09;0.70;;;0.50;;
16689;SDS011;8458;52.220;9.884;2022-08-23T14:06:35;0.40;;;0.40;;
16689;SDS011;8458;52.220;9.884;2022-08-23T14:09:02;0.80;;;0.80;;
16689;SDS011;8458;52.220;9.884;2022-08-23T14:11:30;0.75;;;0.60;;
16689;SDS011;8458;52.220;9.884;2022-08-23T14:13:57;2.22;;;0.68;;
16689;SDS011;8458;52.220;9.884;2022-08-23T14:16:25;1.27;;;0.52;;
16689;SDS011;8458;52.220;9.884;2022-08-23T14:18:55;2.25;;;0.52;;
16689;SDS011;8458;52.220;9.884;2022-08-23T14:21:22;0.55;;;0.55;;
16689;SDS011;8458;52.220;9.884;2022-08-23T14:23:49;0.63;;;0.40;;
16689;SDS011;8458;52.220;9.884;2022-08-23T14:26:16;0.90;;;0.60;;
16689;SDS011;8458;52.220;9.884;2022-08-23T14:28:46;2.65;;;0.80;;
16689;SDS011;8458;52.220;9.884;2022-08-23T14:31:13;1.17;;;0.60;;
16689;SDS011;8458;52.220;9.884;2022-08-23T14:33:39;1.67;;;0.60;;
16689;SDS011;8458;52.220;9.884;2022-08-23T14:36:07;1.35;;;0.60;;
16689;SDS011;8458;52.220;9.884;2022-08-23T14:38:35;1.73;;;0.50;;
16689;SDS011;8458;52.220;9.884;2022-08-23T14:41:02;1.00;;;0.50;;
16689;SDS011;8458;52.220;9.884;2022-08-23T14:43:31;0.95;;;0.57;;
16689;SDS011;8458;52.220;9.884;2022-08-23T14:45:58;0.40;;;0.40;;
16689;SDS011;8458;52.220;9.884;2022-08-23T14:48:25;0.65;;;0.47;;
16689;SDS011;8458;52.220;9.884;2022-08-23T14:50:52;0.95;;;0.60;;
16689;SDS011;8458;52.220;9.884;2022-08-23T14:53:21;1.23;;;0.50;;
16689;SDS011;8458;52.220;9.884;2022-08-23T14:55:50;0.90;;;0.52;;
16689;SDS011;8458;52.220;9.884;2022-08-23T14:58:17;1.40;;;0.52;;
16689;SDS011;8458;52.220;9.884;2022-08-23T15:00:44;0.40;;;0.40;;
16689;SDS011;8458;52.220;9.884;2022-08-23T15:03:12;1.15;;;0.70;;
16689;SDS011;8458;52.220;9.884;2022-08-23T15:05:49;1.60;;;0.60;;
16689;SDS011;8458;52.220;9.884;2022-08-23T15:08:16;0.52;;;0.50;;
16689;SDS011;8458;52.220;9.884;2022-08-23T15:10:44;1.30;;;0.55;;
16689;SDS011;8458;52.220;9.884;2022-08-23T15:13:11;0.73;;;0.60;;
16689;SDS011;8458;52.220;9.884;2022-08-23T15:15:39;1.08;;;0.60;;
16689;SDS011;8458;52.220;9.884;2022-08-23T15:18:07;0.80;;;0.55;;
16689;SDS011;8458;52.220;9.884;2022-08-23T15:20:36;0.70;;;0.50;;
16689;SDS011;8458;52.220;9.884;2022-08-23T15:23:03;1.08;;;0.50;;
16689;SDS011;8458;52.220;9.884;2022-08-23T15:25:32;1.40;;;0.60;;
16689;SDS011;8458;52.220;9.884;2022-08-23T15:28:04;0.90;;;0.70;;
16689;SDS011;8458;52.220;9.884;2022-08-23T15:30:33;0.82;;;0.60;;
16689;SDS011;8458;52.220;9.884;2022-08-23T15:32:59;0.60;;;0.60;;
16689;SDS011;8458;52.220;9.884;2022-08-23T15:35:26;1.00;;;0.70;;
16689;SDS011;8458;52.220;9.884;2022-08-23T15:37:54;0.70;;;0.60;;
16689;SDS011;8458;52.220;9.884;2022-08-23T15:40:22;0.85;;;0.60;;
16689;SDS011;8458;52.220;9.884;2022-08-23T15:42:49;0.68;;;0.52;;
16689;SDS011;8458;52.220;9.884;2022-08-23T15:45:16;1.13;;;0.60;;
16689;SDS011;8458;52.220;9.884;2022-08-23T15:47:44;0.88;;;0.60;;